KSTE

Stevens Point Municipal Airport

Stevens Point, Wisconsin, USA
METAR KSTE 141155Z AUTO 26004KT 2SM BR OVC002 M05/M05 A3018 RMK AO2 T10471047 11011 21047
Observed Flight Rules
Dec-14 @ 11:55 UTC (24 minutes ago) Instrument Flight Rules
Wind Visibility Clouds Conditions
260° at 4 knots 2 miles
  • Overcast at 200' AGL
  • Mist
Temperatures Readings
Current -5°C / 23°F
Dewpoint -5°C / 23°F
Humidity 100%
Altimeter 30.18" Hg
Pressure 1022 hPa
Elevation 338
METAR KSTE 141155Z AUTO 26004KT 2SM BR OVC002 M05/M05 A3018 RMK AO2 T10471047 11011 21047
Observed Flight Rules
Dec-14 @ 11:55 UTC
(24 minutes ago)
LIFR
Wind Visibility
260° at 4 knots 2 miles
Clouds
  • Overcast at 200' AGL
Conditions
  • Mist
Temperature Dewpoint
-5°C / 23°F -5°C / 23°F
Humidity Altimeter Pressure
100% 30.18" Hg 1022 hPa